Карточка аэропорта URSS

Внимание!
Информация на этой странице в стадии наполнения.
Если вы не увидели какой-то информации, или заметили неточность - пожалуйста сообщите нам!
Спасибо!
Команда RU-STAFF
Название аэропортаСочи
Название аэропорта (англ.)Sochi
Превышение89 ft. (27.1 m.)
Координаты43°26.634', 39°56.55'
Высота перехода13000 ft
Эшелон переходаFL140 (QNH >= 1013); FL150 (QNH 977-1012); FL160 (QNH < 977)
Коды ответчика1060-1077
Зона ОрВДРостов-на-Дону РПИ (URRV)
Данные METARURSS 272100Z 05006MPS 9999 NSC 17/08 Q1007 R02/010070 R06/010070 NOSIG RMK R06/07002MPS QFE754
Проноз погоды (TAF)URSS 271955Z 2721/2821 04007G13MPS 9999 SCT100 FM281000 04006MPS 9999 -SHRA BKN050CB OVC100 TEMPO 2810/2817 VRB07G13MPS 2100 -TSRA SCT016 BKN040CB OVC100 BECMG 2817/2819 04007G12MPS
NOTAMshow/hide NOTAM
AWOS   TABLE

Информация о ВПП

ВПП Длина ВПП (м.) Покрытие Курс ВПП Частота ILS
022500Цементобетон22110.5
062890Цементобетон58111.1
202500Цементобетон202 
242890Цементобетон238 

Диспетчерские позиции

Позывной Наименование органа УВД Частота
URSS_APPСочи-Подход124.600
URSS_DELСочи-Деливери132.700
URSS_FM1119.000
URSS_GNDСочи-Руление119.000
URSS_R_APPСочи-Круг119.700
URSS_TWRСочи-Старт121.200



Спутниковое изображение